createdAt,value
2018-11-02T00:00:47.777Z,1009.51
2018-11-02T00:01:47.842Z,1009.54
2018-11-02T00:02:47.901Z,1009.54
2018-11-02T00:03:47.977Z,1009.52
2018-11-02T00:04:48.056Z,1009.56
2018-11-02T00:05:48.090Z,1009.57
2018-11-02T00:06:48.150Z,1009.58
2018-11-02T00:07:48.213Z,1009.60
2018-11-02T00:08:48.273Z,1009.61
2018-11-02T00:09:48.350Z,1009.69
2018-11-02T00:10:48.398Z,1009.64
2018-11-02T00:11:48.461Z,1009.67
2018-11-02T00:12:48.522Z,1009.74
2018-11-02T00:13:48.582Z,1009.74
2018-11-02T00:14:48.650Z,1009.72
2018-11-02T00:15:48.716Z,1009.71
2018-11-02T00:16:48.765Z,1009.71
2018-11-02T00:17:48.830Z,1009.65
2018-11-02T00:18:48.890Z,1009.63
2018-11-02T00:19:48.962Z,1009.64
2018-11-02T00:20:49.030Z,1009.67
2018-11-02T00:21:49.078Z,1009.65
2018-11-02T00:22:49.138Z,1009.62
2018-11-02T00:23:49.202Z,1009.59
2018-11-02T00:24:49.331Z,1009.53
2018-11-02T00:25:49.322Z,1009.56
2018-11-02T00:26:49.387Z,1009.48
2018-11-02T00:27:49.447Z,1009.43
2018-11-02T00:28:49.510Z,1009.41
2018-11-02T00:29:49.579Z,1009.37
2018-11-02T00:30:49.639Z,1009.40
2018-11-02T00:31:49.815Z,1009.39
2018-11-02T00:32:49.755Z,1009.35
2018-11-02T00:33:49.839Z,1009.34
2018-11-02T00:34:49.892Z,1009.35
2018-11-02T00:35:49.947Z,1009.34
2018-11-02T00:36:50.004Z,1009.39
2018-11-02T00:37:50.071Z,1009.44
2018-11-02T00:38:50.127Z,1009.46
2018-11-02T00:39:50.207Z,1009.50
2018-11-02T00:40:50.251Z,1009.52
2018-11-02T00:41:50.311Z,1009.50
2018-11-02T00:42:50.380Z,1009.55
2018-11-02T00:43:50.446Z,1009.59
2018-11-02T00:44:50.505Z,1009.65
2018-11-02T00:45:50.568Z,1009.62
2018-11-02T00:46:50.624Z,1009.67
2018-11-02T00:47:50.680Z,1009.72
2018-11-02T00:48:50.743Z,1009.74
2018-11-02T00:49:50.816Z,1009.77
2018-11-02T00:50:50.875Z,1009.81
2018-11-02T00:51:50.933Z,1009.84
2018-11-02T00:52:50.987Z,1009.85
2018-11-02T00:53:51.063Z,1009.86
2018-11-02T00:54:51.156Z,1009.90
2018-11-02T00:55:51.188Z,1009.86
2018-11-02T00:56:51.236Z,1009.90
2018-11-02T00:57:51.300Z,1009.90
2018-11-02T00:58:51.389Z,1009.94
2018-11-02T00:59:51.428Z,1009.92
2018-11-02T01:00:51.508Z,1009.95
2018-11-02T01:01:51.544Z,1009.97
2018-11-02T01:02:51.608Z,1009.98
2018-11-02T01:03:51.668Z,1010.01
2018-11-02T01:04:51.788Z,1010.04
2018-11-02T01:05:51.800Z,1010.04
2018-11-02T01:06:51.852Z,1010.04
2018-11-02T01:07:51.947Z,1010.08
2018-11-02T01:08:51.976Z,1010.13
2018-11-02T01:09:52.064Z,1010.16
2018-11-02T01:10:52.108Z,1010.18
2018-11-02T01:11:52.161Z,1010.16
2018-11-02T01:12:52.224Z,1010.23
2018-11-02T01:13:52.293Z,1010.22
2018-11-02T01:14:52.477Z,1010.20
2018-11-02T01:15:52.408Z,1010.14
2018-11-02T01:16:52.633Z,1010.17
2018-11-02T01:17:52.536Z,1010.12
2018-11-02T01:18:52.592Z,1010.15
2018-11-02T01:19:52.665Z,1010.16
2018-11-02T01:20:52.725Z,1010.17
2018-11-02T01:21:52.777Z,1010.15
2018-11-02T01:22:52.843Z,1010.16
2018-11-02T01:23:52.905Z,1010.22
2018-11-02T01:24:52.982Z,1010.29
2018-11-02T01:25:53.033Z,1010.25
2018-11-02T01:26:53.085Z,1010.32
2018-11-02T01:27:53.157Z,1010.36
2018-11-02T01:28:53.209Z,1010.45
2018-11-02T01:29:53.275Z,1010.46
2018-11-02T01:30:53.410Z,1010.48
2018-11-02T01:31:53.407Z,1010.46
2018-11-02T01:32:53.457Z,1010.47
2018-11-02T01:33:53.518Z,1010.51
2018-11-02T01:34:53.582Z,1010.55
2018-11-02T01:35:53.668Z,1010.54
2018-11-02T01:36:53.717Z,1010.56
2018-11-02T01:37:53.766Z,1010.58
2018-11-02T01:38:53.826Z,1010.55
2018-11-02T01:39:53.890Z,1010.56
2018-11-02T01:40:53.958Z,1010.59
2018-11-02T01:41:54.026Z,1010.61
2018-11-02T01:42:54.073Z,1010.64
2018-11-02T01:43:54.134Z,1010.60
2018-11-02T01:44:54.203Z,1010.57
2018-11-02T01:45:54.258Z,1010.60
2018-11-02T01:46:54.466Z,1010.62
2018-11-02T01:47:54.383Z,1010.62
2018-11-02T01:48:54.448Z,1010.66
2018-11-02T01:49:54.506Z,1010.69
2018-11-02T01:50:54.566Z,1010.70
2018-11-02T01:51:54.634Z,1010.74
2018-11-02T01:52:54.709Z,1010.70
2018-11-02T01:53:54.754Z,1010.69
2018-11-02T01:54:54.815Z,1010.69
2018-11-02T01:55:54.875Z,1010.69
2018-11-02T01:56:54.947Z,1010.71
2018-11-02T01:57:55.007Z,1010.73
2018-11-02T01:58:55.063Z,1010.81
2018-11-02T01:59:55.123Z,1010.77
2018-11-02T02:00:55.186Z,1010.77
2018-11-02T02:01:55.395Z,1010.82
2018-11-02T02:02:55.311Z,1010.79
2018-11-02T02:03:55.371Z,1010.82
2018-11-02T02:04:55.438Z,1010.84
2018-11-02T02:05:55.495Z,1010.85
2018-11-02T02:06:55.563Z,1010.84
2018-11-02T02:07:55.623Z,1010.91
2018-11-02T02:08:55.679Z,1010.85
2018-11-02T02:09:55.743Z,1010.87
2018-11-02T02:10:55.807Z,1010.90
2018-11-02T02:11:55.872Z,1010.89
2018-11-02T02:12:55.942Z,1010.93
2018-11-02T02:13:55.988Z,1010.93
2018-11-02T02:14:56.051Z,1010.94
2018-11-02T02:15:56.112Z,1010.97
2018-11-02T02:16:56.178Z,1010.97
2018-11-02T02:17:56.264Z,1010.95
2018-11-02T02:18:56.302Z,1010.99
2018-11-02T02:19:56.360Z,1010.97
2018-11-02T02:20:56.424Z,1010.96
2018-11-02T02:21:56.484Z,1011.01
2018-11-02T02:22:56.558Z,1011.04
2018-11-02T02:23:56.612Z,1011.00
2018-11-02T02:24:56.697Z,1011.06
2018-11-02T02:25:56.735Z,1011.09
2018-11-02T02:26:56.792Z,1011.06
2018-11-02T02:27:56.868Z,1011.12
2018-11-02T02:28:56.957Z,1011.18
2018-11-02T02:29:56.976Z,1011.23
2018-11-02T02:30:57.036Z,1011.23
2018-11-02T02:31:57.104Z,1011.22
2018-11-02T02:32:57.285Z,1011.24
2018-11-02T02:33:57.225Z,1011.34
2018-11-02T02:34:57.288Z,1011.29
2018-11-02T02:35:57.345Z,1011.34
2018-11-02T02:36:57.409Z,1011.31
2018-11-02T02:37:57.489Z,1011.34
2018-11-02T02:38:57.545Z,1011.35
2018-11-02T02:39:57.597Z,1011.37
2018-11-02T02:40:57.652Z,1011.35
2018-11-02T02:41:57.716Z,1011.37
2018-11-02T02:42:57.784Z,1011.39
2018-11-02T02:43:57.844Z,1011.40
2018-11-02T02:44:57.901Z,1011.39
2018-11-02T02:45:57.965Z,1011.41
2018-11-02T02:46:58.029Z,1011.36
2018-11-02T02:47:58.121Z,1011.48
2018-11-02T02:48:58.153Z,1011.49
2018-11-02T02:49:58.212Z,1011.56
2018-11-02T02:50:58.273Z,1011.52
2018-11-02T02:51:58.337Z,1011.59
2018-11-02T02:52:58.436Z,1011.62
2018-11-02T02:53:58.465Z,1011.61
2018-11-02T02:54:58.517Z,1011.60
2018-11-02T02:55:58.581Z,1011.64
2018-11-02T02:56:58.641Z,1011.61
2018-11-02T02:57:58.709Z,1011.70
2018-11-02T02:58:58.777Z,1011.76
2018-11-02T02:59:58.829Z,1011.75
2018-11-02T03:00:58.890Z,1011.72
2018-11-02T03:01:58.949Z,1011.72
2018-11-02T03:02:59.022Z,1011.75
2018-11-02T03:03:59.085Z,1011.76
2018-11-02T03:04:59.133Z,1011.79
2018-11-02T03:05:59.205Z,1011.85
2018-11-02T03:06:59.258Z,1011.89
2018-11-02T03:07:59.326Z,1011.87
2018-11-02T03:08:59.389Z,1011.87
2018-11-02T03:09:59.442Z,1011.90
2018-11-02T03:10:59.672Z,1011.91
2018-11-02T03:11:59.587Z,1011.94
2018-11-02T03:12:59.634Z,1011.93
2018-11-02T03:13:59.702Z,1011.98
2018-11-02T03:14:59.752Z,1012.00
2018-11-02T03:15:59.814Z,1011.99
2018-11-02T03:16:59.878Z,1012.05
2018-11-02T03:17:59.942Z,1012.06
2018-11-02T03:19:00.006Z,1012.04
2018-11-02T03:20:00.058Z,1012.10
2018-11-02T03:21:00.129Z,1012.06
2018-11-02T03:22:00.184Z,1012.09
2018-11-02T03:23:00.362Z,1012.10
2018-11-02T03:24:00.306Z,1012.13
2018-11-02T03:25:00.367Z,1012.16
2018-11-02T03:26:00.430Z,1012.11
2018-11-02T03:27:00.507Z,1012.15
2018-11-02T03:28:00.571Z,1012.23
2018-11-02T03:29:00.623Z,1012.24
2018-11-02T03:30:00.678Z,1012.22
2018-11-02T03:31:00.738Z,1012.30
2018-11-02T03:32:00.799Z,1012.34
2018-11-02T03:33:00.871Z,1012.34
2018-11-02T03:34:00.943Z,1012.35
2018-11-02T03:35:00.987Z,1012.35
2018-11-02T03:36:01.047Z,1012.28
2018-11-02T03:37:01.107Z,1012.37
2018-11-02T03:38:01.415Z,1012.35
2018-11-02T03:39:01.231Z,1012.38
2018-11-02T03:40:01.298Z,1012.38
2018-11-02T03:41:01.355Z,1012.41
2018-11-02T03:42:01.415Z,1012.44
2018-11-02T03:43:01.487Z,1012.47
2018-11-02T03:44:01.547Z,1012.50
2018-11-02T03:45:01.603Z,1012.48
2018-11-02T03:46:01.664Z,1012.52
2018-11-02T03:47:01.724Z,1012.52
2018-11-02T03:48:01.795Z,1012.49
2018-11-02T03:49:01.859Z,1012.51
2018-11-02T03:50:01.913Z,1012.52
2018-11-02T03:51:01.971Z,1012.49
2018-11-02T03:52:02.031Z,1012.51
2018-11-02T03:53:02.432Z,1012.50
2018-11-02T03:54:02.160Z,1012.49
2018-11-02T03:55:02.219Z,1012.52
2018-11-02T03:56:02.299Z,1012.56
2018-11-02T03:57:02.399Z,1012.50
2018-11-02T03:58:02.408Z,1012.50
2018-11-02T03:59:02.744Z,1012.47
2018-11-02T04:00:02.527Z,1012.54
2018-11-02T04:01:02.588Z,1012.59
2018-11-02T04:02:02.648Z,1012.62
2018-11-02T04:03:02.712Z,1012.65
2018-11-02T04:04:02.780Z,1012.65
2018-11-02T04:05:02.848Z,1012.71
2018-11-02T04:06:02.900Z,1012.74
2018-11-02T04:07:02.955Z,1012.75
2018-11-02T04:08:03.016Z,1012.77
2018-11-02T04:09:03.197Z,1012.74
2018-11-02T04:10:03.140Z,1012.83
2018-11-02T04:11:03.204Z,1012.82
2018-11-02T04:12:03.260Z,1012.83
2018-11-02T04:13:03.324Z,1012.82
2018-11-02T04:14:03.396Z,1012.90
2018-11-02T04:15:03.456Z,1012.89
2018-11-02T04:16:03.504Z,1012.98
2018-11-02T04:17:03.572Z,1013.01
2018-11-02T04:18:03.633Z,1012.93
2018-11-02T04:19:03.700Z,1013.01
2018-11-02T04:20:03.761Z,1013.08
2018-11-02T04:21:03.817Z,1013.03
2018-11-02T04:22:03.879Z,1013.06
2018-11-02T04:23:03.941Z,1013.05
2018-11-02T04:24:04.009Z,1013.03
2018-11-02T04:25:04.069Z,1013.04
2018-11-02T04:26:04.125Z,1013.04
2018-11-02T04:27:04.197Z,1013.02
2018-11-02T04:28:04.244Z,1013.03
2018-11-02T04:29:04.361Z,1013.10
2018-11-02T04:30:04.373Z,1013.12
2018-11-02T04:31:04.530Z,1013.11
2018-11-02T04:32:04.521Z,1013.20
2018-11-02T04:33:04.558Z,1013.22
2018-11-02T04:34:04.650Z,1013.27
2018-11-02T04:35:04.681Z,1013.29
2018-11-02T04:36:04.737Z,1013.38
2018-11-02T04:37:04.802Z,1013.42
2018-11-02T04:38:04.866Z,1013.39
2018-11-02T04:39:04.926Z,1013.46
2018-11-02T04:40:04.990Z,1013.54
2018-11-02T04:41:05.072Z,1013.50
2018-11-02T04:42:05.107Z,1013.54
2018-11-02T04:43:05.185Z,1013.51
2018-11-02T04:44:05.326Z,1013.54
2018-11-02T04:45:05.306Z,1013.60
2018-11-02T04:46:05.364Z,1013.59
2018-11-02T04:47:05.410Z,1013.65
2018-11-02T04:48:05.475Z,1013.69
2018-11-02T04:49:05.582Z,1013.72
2018-11-02T04:50:05.602Z,1013.69
2018-11-02T04:51:05.761Z,1013.72
2018-11-02T04:52:05.723Z,1013.67
2018-11-02T04:53:05.782Z,1013.69
2018-11-02T04:54:05.850Z,1013.73
2018-11-02T04:55:05.907Z,1013.69
2018-11-02T04:56:05.958Z,1013.76
2018-11-02T04:57:06.024Z,1013.77
2018-11-02T04:58:06.082Z,1013.81
2018-11-02T04:59:06.250Z,1013.78
2018-11-02T05:00:06.203Z,1013.81
2018-11-02T05:01:06.272Z,1013.85
2018-11-02T05:02:06.330Z,1013.83
2018-11-02T05:03:06.390Z,1013.84
2018-11-02T05:04:06.455Z,1013.89
2018-11-02T05:05:06.519Z,1013.93
2018-11-02T05:06:06.566Z,1013.95
2018-11-02T05:07:06.630Z,1013.97
2018-11-02T05:08:06.697Z,1014.04
2018-11-02T05:09:06.766Z,1014.02
2018-11-02T05:10:06.826Z,1014.06
2018-11-02T05:11:06.887Z,1014.06
2018-11-02T05:12:06.939Z,1014.11
2018-11-02T05:13:07.001Z,1014.15
2018-11-02T05:14:07.067Z,1014.19
2018-11-02T05:15:07.135Z,1014.17
2018-11-02T05:16:07.183Z,1014.19
2018-11-02T05:17:07.243Z,1014.31
2018-11-02T05:18:07.307Z,1014.21
2018-11-02T05:19:07.375Z,1014.29
2018-11-02T05:20:07.468Z,1014.32
2018-11-02T05:21:07.495Z,1014.27
2018-11-02T05:22:07.553Z,1014.33
2018-11-02T05:23:07.612Z,1014.37
2018-11-02T05:24:07.723Z,1014.42
2018-11-02T05:25:07.748Z,1014.37
2018-11-02T05:26:07.796Z,1014.41
2018-11-02T05:27:07.862Z,1014.42
2018-11-02T05:28:07.919Z,1014.43
2018-11-02T05:29:07.988Z,1014.50
2018-11-02T05:30:08.048Z,1014.49
2018-11-02T05:31:08.101Z,1014.57
2018-11-02T05:32:08.164Z,1014.60
2018-11-02T05:33:08.224Z,1014.66
2018-11-02T05:34:08.532Z,1014.69
2018-11-02T05:35:08.348Z,1014.72
2018-11-02T05:36:08.408Z,1014.68
2018-11-02T05:37:08.468Z,1014.73
2018-11-02T05:38:08.532Z,1014.73
2018-11-02T05:40:49.908Z,1014.77
2018-11-02T05:41:49.944Z,1014.83
2018-11-02T05:42:50.004Z,1014.80
2018-11-02T05:43:50.065Z,1014.81
2018-11-02T05:44:50.129Z,1014.83
2018-11-02T05:45:50.296Z,1014.87
2018-11-02T05:46:50.249Z,1014.90
2018-11-02T05:47:50.312Z,1014.83
2018-11-02T05:48:50.372Z,1014.88
2018-11-02T05:49:50.432Z,1014.85
2018-11-02T05:50:50.509Z,1014.88
2018-11-02T05:51:50.561Z,1014.93
2018-11-02T05:52:50.617Z,1014.96
2018-11-02T05:53:50.677Z,1014.97
2018-11-02T05:54:50.737Z,1015.03
2018-11-02T05:55:50.805Z,1015.04
2018-11-02T05:56:50.884Z,1015.09
2018-11-02T05:57:50.923Z,1015.09
2018-11-02T05:58:50.982Z,1015.08
2018-11-02T05:59:51.043Z,1015.16
2018-11-02T06:00:51.341Z,1015.15
2018-11-02T06:01:51.165Z,1015.18
2018-11-02T06:02:51.233Z,1015.18
2018-11-02T06:03:51.285Z,1015.26
2018-11-02T06:04:51.349Z,1015.26
2018-11-02T06:05:51.417Z,1015.28
2018-11-02T06:06:51.485Z,1015.24
2018-11-02T06:07:51.601Z,1015.34
2018-11-02T06:08:51.597Z,1015.29
2018-11-02T06:09:51.668Z,1015.30
2018-11-02T06:10:51.727Z,1015.32
2018-11-02T06:11:51.781Z,1015.32
2018-11-02T06:12:51.837Z,1015.39
2018-11-02T06:13:51.897Z,1015.42
2018-11-02T06:14:51.962Z,1015.46
2018-11-02T06:15:52.027Z,1015.46
2018-11-02T06:16:52.144Z,1015.52
2018-11-02T06:17:52.143Z,1015.54
2018-11-02T06:18:52.204Z,1015.55
2018-11-02T06:19:52.262Z,1015.55
2018-11-02T06:20:52.370Z,1015.56
2018-11-02T06:21:52.386Z,1015.52
2018-11-02T06:22:52.446Z,1015.53
2018-11-02T06:23:52.510Z,1015.54
2018-11-02T06:24:52.570Z,1015.54
2018-11-02T06:25:52.638Z,1015.60
2018-11-02T06:26:52.703Z,1015.59
2018-11-02T06:27:52.750Z,1015.64
2018-11-02T06:28:52.814Z,1015.65
2018-11-02T06:29:52.874Z,1015.71
2018-11-02T06:30:52.943Z,1015.70
2018-11-02T06:31:53.003Z,1015.70
2018-11-02T06:32:53.276Z,1015.76
2018-11-02T06:33:53.118Z,1015.76
2018-11-02T06:34:53.178Z,1015.82
2018-11-02T06:35:53.482Z,1015.87
2018-11-02T06:36:53.303Z,1015.88
2018-11-02T06:37:53.362Z,1015.93
2018-11-02T06:38:53.513Z,1015.96
2018-11-02T06:39:53.483Z,1015.97
2018-11-02T06:40:53.555Z,1016.02
2018-11-02T06:41:53.618Z,1016.03
2018-11-02T06:42:53.667Z,1016.03
2018-11-02T06:43:53.737Z,1016.07
2018-11-02T06:44:53.873Z,1016.11
2018-11-02T06:45:53.860Z,1016.17
2018-11-02T06:46:53.919Z,1016.13
2018-11-02T06:47:53.975Z,1016.20
2018-11-02T06:48:54.136Z,1016.23
2018-11-02T06:49:54.095Z,1016.24
2018-11-02T06:50:54.401Z,1016.27
2018-11-02T06:51:54.218Z,1016.33
2018-11-02T06:52:54.280Z,1016.31
2018-11-02T06:53:54.343Z,1016.34
2018-11-02T06:54:54.404Z,1016.37
2018-11-02T06:55:54.471Z,1016.44
2018-11-02T06:56:54.531Z,1016.44
2018-11-02T06:57:54.591Z,1016.47
2018-11-02T06:58:54.652Z,1016.48
2018-11-02T06:59:54.935Z,1016.54
2018-11-02T07:00:54.775Z,1016.52
2018-11-02T07:01:54.840Z,1016.54
2018-11-02T07:02:54.891Z,1016.57
2018-11-02T07:03:54.954Z,1016.63
2018-11-02T07:04:55.016Z,1016.66
2018-11-02T07:05:55.172Z,1016.72
2018-11-02T07:06:55.140Z,1016.72
2018-11-02T07:07:55.340Z,1016.71
2018-11-02T07:08:55.259Z,1016.71
2018-11-02T07:09:55.320Z,1016.74
2018-11-02T07:10:55.388Z,1016.77
2018-11-02T07:11:55.452Z,1016.77
2018-11-02T07:12:55.504Z,1016.72
2018-11-02T07:13:55.570Z,1016.75
2018-11-02T07:14:55.632Z,1016.76
2018-11-02T07:15:55.696Z,1016.77
2018-11-02T07:16:55.763Z,1016.71
2018-11-02T07:17:55.816Z,1016.80
2018-11-02T07:18:55.872Z,1016.84
2018-11-02T07:19:55.936Z,1016.96
2018-11-02T07:20:56.017Z,1017.09
2018-11-02T07:21:56.065Z,1017.13
2018-11-02T07:22:56.121Z,1017.14
2018-11-02T07:23:56.183Z,1017.14
2018-11-02T07:24:56.270Z,1017.07
2018-11-02T07:25:56.306Z,1017.03
2018-11-02T07:26:56.465Z,1017.00
2018-11-02T07:27:56.429Z,1016.94
2018-11-02T07:28:56.492Z,1016.98
2018-11-02T07:29:56.557Z,1017.02
2018-11-02T07:30:56.617Z,1017.03
2018-11-02T07:31:56.685Z,1017.06
2018-11-02T07:32:56.749Z,1017.09
2018-11-02T07:33:56.805Z,1017.04
2018-11-02T07:34:56.865Z,1017.07
2018-11-02T07:35:56.929Z,1017.06
2018-11-02T07:36:56.997Z,1017.07
2018-11-02T07:37:57.061Z,1017.09
2018-11-02T07:38:57.117Z,1017.10
2018-11-02T07:39:57.177Z,1017.12
2018-11-02T07:40:57.241Z,1017.13
2018-11-02T07:41:57.361Z,1017.11
2018-11-02T07:42:57.365Z,1017.12
2018-11-02T07:43:57.426Z,1017.19
2018-11-02T07:44:57.490Z,1017.15
2018-11-02T07:45:57.550Z,1017.18
2018-11-02T07:46:57.618Z,1017.22
2018-11-02T07:47:57.687Z,1017.22
2018-11-02T07:48:57.739Z,1017.22
2018-11-02T07:49:57.798Z,1017.24
2018-11-02T07:50:57.861Z,1017.23
2018-11-02T07:51:57.930Z,1017.26
2018-11-02T07:52:58.056Z,1017.26
2018-11-02T07:53:58.059Z,1017.24
2018-11-02T07:54:58.111Z,1017.29
2018-11-02T07:55:58.171Z,1017.25
2018-11-02T07:56:58.281Z,1017.28
2018-11-02T07:57:58.298Z,1017.25
2018-11-02T07:58:58.358Z,1017.25
2018-11-02T07:59:58.423Z,1017.26
2018-11-02T08:00:58.490Z,1017.29
2018-11-02T08:01:58.632Z,1017.29
2018-11-02T08:02:58.615Z,1017.31
2018-11-02T08:03:58.671Z,1017.36
2018-11-02T08:04:58.738Z,1017.35
2018-11-02T08:05:58.795Z,1017.32
2018-11-02T08:06:58.867Z,1017.35
2018-11-02T08:07:58.927Z,1017.36
2018-11-02T08:08:58.983Z,1017.38
2018-11-02T08:09:59.043Z,1017.39
2018-11-02T08:10:59.103Z,1017.38
2018-11-02T08:11:59.407Z,1017.38
2018-11-02T08:12:59.232Z,1017.39
2018-11-02T08:13:59.292Z,1017.37
2018-11-02T08:14:59.355Z,1017.40
2018-11-02T08:15:59.415Z,1017.45
2018-11-02T08:16:59.487Z,1017.47
2018-11-02T08:17:59.551Z,1017.47
2018-11-02T08:18:59.793Z,1017.48
2018-11-02T08:19:59.675Z,1017.43
2018-11-02T08:20:59.730Z,1017.46
2018-11-02T08:21:59.800Z,1017.42
2018-11-02T08:22:59.860Z,1017.41
2018-11-02T08:23:59.916Z,1017.42
2018-11-02T08:24:59.984Z,1017.41
2018-11-02T08:26:00.040Z,1017.41
2018-11-02T08:27:00.231Z,1017.42
2018-11-02T08:28:00.163Z,1017.43
2018-11-02T08:29:00.227Z,1017.40
2018-11-02T08:30:00.291Z,1017.40
2018-11-02T08:31:00.352Z,1017.38
2018-11-02T08:32:00.438Z,1017.43
2018-11-02T08:33:00.484Z,1017.44
2018-11-02T08:34:00.542Z,1017.49
2018-11-02T08:35:00.600Z,1017.55
2018-11-02T08:36:00.668Z,1017.58
2018-11-02T08:37:00.736Z,1017.66
2018-11-02T08:38:00.804Z,1017.68
2018-11-02T08:39:00.848Z,1017.70
2018-11-02T08:40:00.912Z,1017.70
2018-11-02T08:41:00.976Z,1017.72
2018-11-02T08:42:01.044Z,1017.76
2018-11-02T08:43:01.108Z,1017.82
2018-11-02T08:44:01.161Z,1017.87
2018-11-02T08:45:01.230Z,1017.85
2018-11-02T08:46:01.288Z,1017.89
2018-11-02T08:47:01.357Z,1017.95
2018-11-02T08:48:01.425Z,1017.93
2018-11-02T08:49:01.473Z,1017.96
2018-11-02T08:50:01.538Z,1017.96
2018-11-02T08:51:01.597Z,1017.94
2018-11-02T08:52:01.719Z,1017.96
2018-11-02T08:53:01.755Z,1018.00
2018-11-02T08:54:01.788Z,1018.00
2018-11-02T08:55:01.851Z,1018.01
2018-11-02T08:56:01.914Z,1018.03
2018-11-02T08:57:01.987Z,1018.06
2018-11-02T08:58:02.186Z,1018.00
2018-11-02T08:59:02.147Z,1018.01
2018-11-02T09:00:02.208Z,1018.08
2018-11-02T09:01:02.226Z,1018.02
2018-11-02T09:02:02.566Z,1018.06
2018-11-02T09:03:02.350Z,1018.15
2018-11-02T09:04:02.414Z,1018.16
2018-11-02T09:05:02.553Z,1018.15
2018-11-02T09:06:02.538Z,1018.08
2018-11-02T09:07:02.618Z,1018.09
2018-11-02T09:08:02.673Z,1018.10
2018-11-02T09:09:02.726Z,1018.06
2018-11-02T09:10:02.790Z,1018.07
2018-11-02T09:11:02.850Z,1018.05
2018-11-02T09:12:02.948Z,1018.10
2018-11-02T09:13:02.986Z,1018.13
2018-11-02T09:14:03.042Z,1018.07
2018-11-02T09:15:03.105Z,1018.10
2018-11-02T09:16:03.167Z,1018.11
2018-11-02T09:17:03.327Z,1018.12
2018-11-02T09:18:03.295Z,1018.21
2018-11-02T09:19:03.355Z,1018.21
2018-11-02T09:20:03.419Z,1018.25
2018-11-02T09:21:03.479Z,1018.29
2018-11-02T09:22:03.551Z,1018.28
2018-11-02T09:23:03.615Z,1018.23
2018-11-02T09:24:03.682Z,1018.31
2018-11-02T09:25:03.731Z,1018.38
2018-11-02T09:26:03.795Z,1018.33
2018-11-02T09:27:03.863Z,1018.34
2018-11-02T09:28:04.008Z,1018.33
2018-11-02T09:29:04.033Z,1018.30
2018-11-02T09:30:04.047Z,1018.30
2018-11-02T09:31:04.121Z,1018.27
2018-11-02T09:32:04.436Z,1018.30
2018-11-02T09:33:04.254Z,1018.31
2018-11-02T09:34:04.299Z,1018.36
2018-11-02T09:35:04.364Z,1018.35
2018-11-02T09:36:04.431Z,1018.38
2018-11-02T09:37:04.495Z,1018.43
2018-11-02T09:38:04.559Z,1018.46
2018-11-02T09:39:04.611Z,1018.51
2018-11-02T09:40:04.744Z,1018.50
2018-11-02T09:41:04.743Z,1018.44
2018-11-02T09:42:04.812Z,1018.46
2018-11-02T09:43:04.871Z,1018.48
2018-11-02T09:44:04.927Z,1018.50
2018-11-02T09:45:04.996Z,1018.50
2018-11-02T09:46:05.055Z,1018.56
2018-11-02T09:47:05.388Z,1018.61
2018-11-02T09:48:05.183Z,1018.59
2018-11-02T09:49:05.244Z,1018.62
2018-11-02T09:50:05.312Z,1018.65
2018-11-02T09:51:05.368Z,1018.67
2018-11-02T09:52:05.509Z,1018.72
2018-11-02T09:53:05.504Z,1018.73
2018-11-02T09:54:05.565Z,1018.78
2018-11-02T09:55:05.620Z,1018.80
2018-11-02T09:56:05.688Z,1018.81
2018-11-02T09:57:05.756Z,1018.84
2018-11-02T09:58:05.816Z,1018.84
2018-11-02T09:59:05.871Z,1018.84
2018-11-02T10:00:05.941Z,1018.85
2018-11-02T10:01:06.000Z,1018.86
2018-11-02T10:02:06.108Z,1018.87
2018-11-02T10:03:06.132Z,1018.87
2018-11-02T10:04:06.193Z,1018.85
2018-11-02T10:05:06.253Z,1018.85
2018-11-02T10:06:06.313Z,1018.88
2018-11-02T10:07:06.384Z,1018.86
2018-11-02T10:08:06.449Z,1018.82
2018-11-02T10:09:06.579Z,1018.80
2018-11-02T10:10:06.573Z,1018.82
2018-11-02T10:11:06.634Z,1018.80
2018-11-02T10:12:06.701Z,1018.84
2018-11-02T10:13:06.760Z,1018.86
2018-11-02T10:14:06.821Z,1018.89
2018-11-02T10:15:06.884Z,1018.91
2018-11-02T10:16:06.944Z,1018.93
2018-11-02T10:17:07.017Z,1018.94
2018-11-02T10:18:07.076Z,1018.97
2018-11-02T10:19:07.134Z,1019.00
2018-11-02T10:20:07.197Z,1018.99
2018-11-02T10:21:07.261Z,1019.04
2018-11-02T10:22:07.328Z,1019.04
2018-11-02T10:23:07.393Z,1019.02
2018-11-02T10:24:07.450Z,1019.04
2018-11-02T10:25:07.514Z,1019.01
2018-11-02T10:26:07.577Z,1019.05
2018-11-02T10:27:07.657Z,1019.05
2018-11-02T10:28:07.722Z,1019.07
2018-11-02T10:29:07.765Z,1019.07
2018-11-02T10:30:07.836Z,1019.10
2018-11-02T10:31:07.893Z,1019.09
2018-11-02T10:32:07.962Z,1019.12
2018-11-02T10:33:08.023Z,1019.13
2018-11-02T10:34:08.081Z,1019.12
2018-11-02T10:35:08.155Z,1019.14
2018-11-02T10:36:08.268Z,1019.18
2018-11-02T10:37:08.314Z,1019.17
2018-11-02T10:38:08.572Z,1019.15
2018-11-02T10:39:08.398Z,1019.19
2018-11-02T10:40:08.462Z,1019.20
2018-11-02T10:41:08.522Z,1019.21
2018-11-02T10:42:08.588Z,1019.22
2018-11-02T10:43:08.658Z,1019.27
2018-11-02T10:44:08.730Z,1019.24
2018-11-02T10:45:08.774Z,1019.24
2018-11-02T10:46:08.842Z,1019.29
2018-11-02T10:47:08.899Z,1019.30
2018-11-02T10:48:08.971Z,1019.31
2018-11-02T10:49:09.096Z,1019.29
2018-11-02T10:50:09.099Z,1019.33
2018-11-02T10:51:09.233Z,1019.31
2018-11-02T10:52:09.214Z,1019.35
2018-11-02T10:53:09.298Z,1019.33
2018-11-02T10:54:09.339Z,1019.35
2018-11-02T10:55:09.404Z,1019.37
2018-11-02T10:56:09.466Z,1019.36
2018-11-02T10:57:09.531Z,1019.39
2018-11-02T10:58:09.605Z,1019.33
2018-11-02T10:59:09.664Z,1019.35
2018-11-02T11:00:09.719Z,1019.36
2018-11-02T11:01:09.916Z,1019.41
2018-11-02T11:02:09.847Z,1019.39
2018-11-02T11:03:09.916Z,1019.44
2018-11-02T11:04:09.979Z,1019.43
2018-11-02T11:05:10.050Z,1019.45
2018-11-02T11:06:10.107Z,1019.44
2018-11-02T11:07:10.161Z,1019.44
2018-11-02T11:08:10.279Z,1019.46
2018-11-02T11:09:10.291Z,1019.44
2018-11-02T11:10:10.351Z,1019.44
2018-11-02T11:11:10.416Z,1019.45
2018-11-02T11:12:10.521Z,1019.46
2018-11-02T11:13:10.942Z,1019.43
2018-11-02T11:14:10.611Z,1019.46
2018-11-02T11:15:10.667Z,1019.52
2018-11-02T11:16:10.731Z,1019.54
2018-11-02T11:17:10.791Z,1019.58
2018-11-02T11:18:10.863Z,1019.53
2018-11-02T11:19:10.927Z,1019.54
2018-11-02T11:20:10.987Z,1019.53
2018-11-02T11:21:11.054Z,1019.55
2018-11-02T11:22:11.111Z,1019.50
2018-11-02T11:23:11.216Z,1019.54
2018-11-02T11:24:11.236Z,1019.51
2018-11-02T11:25:11.300Z,1019.59
2018-11-02T11:26:11.364Z,1019.58
2018-11-02T11:27:11.428Z,1019.60
2018-11-02T11:28:11.495Z,1019.52
2018-11-02T11:29:11.620Z,1019.56
2018-11-02T11:30:11.617Z,1019.53
2018-11-02T11:31:11.679Z,1019.56
2018-11-02T11:32:11.743Z,1019.55
2018-11-02T11:33:11.823Z,1019.58
2018-11-02T11:34:11.880Z,1019.58
2018-11-02T11:35:11.937Z,1019.61
2018-11-02T11:36:11.996Z,1019.65
2018-11-02T11:37:12.059Z,1019.66
2018-11-02T11:38:12.364Z,1019.68
2018-11-02T11:39:12.188Z,1019.68
2018-11-02T11:40:12.254Z,1019.67
2018-11-02T11:41:12.316Z,1019.70
2018-11-02T11:42:12.380Z,1019.69
2018-11-02T11:43:12.453Z,1019.65
2018-11-02T11:44:12.512Z,1019.65
2018-11-02T11:45:12.573Z,1019.67
2018-11-02T11:46:12.633Z,1019.66
2018-11-02T11:47:12.697Z,1019.68
2018-11-02T11:48:12.769Z,1019.68
2018-11-02T11:49:12.939Z,1019.68
2018-11-02T11:50:12.889Z,1019.66
2018-11-02T11:51:12.957Z,1019.67
2018-11-02T11:52:13.013Z,1019.68
2018-11-02T11:53:13.325Z,1019.66
2018-11-02T11:54:13.156Z,1019.74
2018-11-02T11:55:13.205Z,1019.72
2018-11-02T11:56:13.269Z,1019.70
2018-11-02T11:57:13.333Z,1019.72
2018-11-02T11:58:13.405Z,1019.73
2018-11-02T11:59:13.465Z,1019.74
2018-11-02T12:00:13.521Z,1019.69
2018-11-02T12:01:13.592Z,1019.67
2018-11-02T12:02:13.728Z,1019.73
2018-11-02T12:03:13.724Z,1019.70
2018-11-02T12:04:14.306Z,1019.67
2018-11-02T12:05:13.845Z,1019.71
2018-11-02T12:06:13.909Z,1019.72
2018-11-02T12:07:13.965Z,1019.72
2018-11-02T12:08:14.038Z,1019.75